createdAt,value
2022-08-16T00:01:11.824Z,4.65
2022-08-16T00:03:38.876Z,3.22
2022-08-16T00:06:08.142Z,3.75
2022-08-16T00:08:37.799Z,5.53
2022-08-16T00:11:15.158Z,10.00
2022-08-16T00:13:43.170Z,3.40
2022-08-16T00:17:05.551Z,5.13
2022-08-16T00:19:06.458Z,3.15
2022-08-16T00:21:33.940Z,6.75
2022-08-16T00:24:04.799Z,4.43
2022-08-16T00:26:36.160Z,4.75
2022-08-16T00:29:05.667Z,5.43
2022-08-16T00:31:58.857Z,3.42
2022-08-16T00:34:44.781Z,8.20
2022-08-16T00:37:11.634Z,3.90
2022-08-16T00:39:38.988Z,7.78
2022-08-16T00:42:10.118Z,3.88
2022-08-16T00:47:16.353Z,7.38
2022-08-16T00:49:44.439Z,3.83
2022-08-16T00:52:30.201Z,4.03
2022-08-16T00:54:59.350Z,6.70
2022-08-16T00:57:58.302Z,8.02
2022-08-16T01:00:19.866Z,4.38
2022-08-16T01:02:48.954Z,7.75
2022-08-16T01:05:16.211Z,6.80
2022-08-16T01:07:52.007Z,6.45
2022-08-16T01:10:31.326Z,4.18
2022-08-16T01:13:04.527Z,3.50
2022-08-16T01:15:33.923Z,5.28
2022-08-16T01:18:02.965Z,3.70
2022-08-16T01:20:33.947Z,4.95
2022-08-16T01:23:17.837Z,3.35
2022-08-16T01:25:59.851Z,5.15
2022-08-16T01:28:30.622Z,5.80
2022-08-16T01:30:59.795Z,5.50
2022-08-16T01:33:33.303Z,4.22
2022-08-16T01:36:11.812Z,5.88
2022-08-16T01:38:49.003Z,4.47
2022-08-16T01:41:22.814Z,4.38
2022-08-16T01:43:53.755Z,5.63
2022-08-16T01:46:40.014Z,7.40
2022-08-16T01:49:43.668Z,5.10
2022-08-16T01:52:28.187Z,8.70
2022-08-16T01:54:58.263Z,5.10
2022-08-16T01:57:27.802Z,4.13
2022-08-16T01:59:58.484Z,4.60
2022-08-16T02:02:27.288Z,6.22
2022-08-16T02:04:55.342Z,6.65
2022-08-16T02:07:23.746Z,5.35
2022-08-16T02:09:58.892Z,6.57
2022-08-16T02:12:50.044Z,3.45
2022-08-16T02:15:25.469Z,5.60
2022-08-16T02:17:53.253Z,6.05
2022-08-16T02:20:26.388Z,4.30
2022-08-16T02:22:55.322Z,3.17
2022-08-16T02:25:22.751Z,4.95
2022-08-16T02:27:51.488Z,3.22
2022-08-16T02:30:37.553Z,3.22
2022-08-16T02:33:10.295Z,3.97
2022-08-16T02:35:54.093Z,4.30
2022-08-16T02:38:24.978Z,3.90
2022-08-16T02:40:54.417Z,5.90
2022-08-16T02:43:26.654Z,2.92
2022-08-16T02:45:54.200Z,7.10
2022-08-16T02:48:29.502Z,7.30
2022-08-16T02:51:10.691Z,4.95
2022-08-16T02:53:47.505Z,14.00
2022-08-16T02:56:17.920Z,9.40
2022-08-16T02:58:50.659Z,5.38
2022-08-16T03:01:33.745Z,7.10
2022-08-16T03:04:41.132Z,3.55
2022-08-16T03:06:55.271Z,5.63
2022-08-16T03:09:24.332Z,2.88
2022-08-16T03:11:51.011Z,8.10
2022-08-16T03:14:21.405Z,3.70
2022-08-16T03:16:59.212Z,7.13
2022-08-16T03:19:47.431Z,3.40
2022-08-16T03:22:18.985Z,5.00
2022-08-16T03:24:54.783Z,6.30
2022-08-16T03:27:25.138Z,5.20
2022-08-16T03:29:57.831Z,5.22
2022-08-16T03:32:24.480Z,7.43
2022-08-16T03:34:52.927Z,6.45
2022-08-16T03:37:19.657Z,5.85
2022-08-16T03:39:47.029Z,5.63
2022-08-16T03:42:20.502Z,5.00
2022-08-16T03:44:50.004Z,5.18
2022-08-16T03:47:19.115Z,4.63
2022-08-16T03:49:51.410Z,10.70
2022-08-16T03:52:20.589Z,8.63
2022-08-16T03:54:57.452Z,10.85
2022-08-16T03:57:31.762Z,17.10
2022-08-16T04:00:35.555Z,6.88
2022-08-16T04:03:08.802Z,12.65
2022-08-16T04:05:48.457Z,12.88
2022-08-16T04:08:23.051Z,5.85
2022-08-16T04:10:51.817Z,17.48
2022-08-16T04:13:20.238Z,7.78
2022-08-16T04:16:06.563Z,10.43
2022-08-16T04:18:36.818Z,6.10
2022-08-16T04:21:04.018Z,5.13
2022-08-16T04:23:30.680Z,7.38
2022-08-16T04:25:57.377Z,4.15
2022-08-16T04:28:54.357Z,7.47
2022-08-16T04:31:15.642Z,5.20
2022-08-16T04:33:50.873Z,5.75
2022-08-16T04:36:20.212Z,5.05
2022-08-16T04:38:47.270Z,4.25
2022-08-16T04:41:17.499Z,8.75
2022-08-16T04:43:44.731Z,4.95
2022-08-16T04:47:00.130Z,5.03
2022-08-16T04:49:03.899Z,19.92
2022-08-16T04:51:36.066Z,7.95
2022-08-16T04:54:06.081Z,14.35
2022-08-16T04:56:33.371Z,6.20
2022-08-16T04:59:00.734Z,20.30
2022-08-16T05:01:57.758Z,14.85
2022-08-16T05:04:19.240Z,6.03
2022-08-16T05:06:46.599Z,3.90
2022-08-16T05:09:14.517Z,5.47
2022-08-16T05:11:43.275Z,5.75
2022-08-16T05:14:10.159Z,4.50
2022-08-16T05:16:36.870Z,4.22
2022-08-16T05:19:04.950Z,13.77
2022-08-16T05:21:36.020Z,8.93
2022-08-16T05:24:07.137Z,4.88
2022-08-16T05:26:37.553Z,6.15
2022-08-16T05:29:10.817Z,7.85
2022-08-16T05:31:44.189Z,11.80
2022-08-16T05:34:19.950Z,3.50
2022-08-16T05:36:51.154Z,5.60
2022-08-16T05:39:18.812Z,4.87
2022-08-16T05:41:47.755Z,6.60
2022-08-16T05:44:22.904Z,8.43
2022-08-16T05:47:00.318Z,3.13
2022-08-16T05:49:38.901Z,15.20
2022-08-16T05:52:11.375Z,15.43
2022-08-16T05:54:45.950Z,3.97
2022-08-16T05:57:14.552Z,9.40
2022-08-16T05:59:41.870Z,6.40
2022-08-16T06:02:08.614Z,6.13
2022-08-16T06:04:37.539Z,5.85
2022-08-16T06:07:08.164Z,4.65
2022-08-16T06:09:37.155Z,6.43
2022-08-16T06:12:10.976Z,10.20
2022-08-16T06:14:40.107Z,4.93
2022-08-16T06:17:07.610Z,8.98
2022-08-16T06:19:35.796Z,4.20
2022-08-16T06:22:03.253Z,6.57
2022-08-16T06:24:53.815Z,12.55
2022-08-16T06:27:17.144Z,8.15
2022-08-16T06:29:44.702Z,5.75
2022-08-16T06:32:27.369Z,12.93
2022-08-16T06:35:02.834Z,7.35
2022-08-16T06:37:36.974Z,17.80
2022-08-16T06:40:05.628Z,16.65
2022-08-16T06:42:47.907Z,11.50
2022-08-16T06:45:15.705Z,8.30
2022-08-16T06:47:53.396Z,5.97
2022-08-16T06:50:31.533Z,6.97
2022-08-16T06:53:06.837Z,5.32
2022-08-16T06:55:38.289Z,8.85
2022-08-16T06:58:08.095Z,5.45
2022-08-16T07:00:37.637Z,8.00
2022-08-16T07:03:26.809Z,2.22
2022-08-16T07:05:53.926Z,3.92
2022-08-16T07:08:21.063Z,6.15
2022-08-16T07:10:47.838Z,3.47
2022-08-16T07:13:23.052Z,5.22
2022-08-16T07:16:02.709Z,4.55
2022-08-16T07:18:29.579Z,6.93
2022-08-16T07:21:01.711Z,4.15
2022-08-16T07:23:37.204Z,7.87
2022-08-16T07:26:08.498Z,6.63
2022-08-16T07:28:35.563Z,4.70
2022-08-16T07:31:03.309Z,5.30
2022-08-16T07:33:53.801Z,4.13
2022-08-16T07:36:22.837Z,3.60
2022-08-16T07:38:49.976Z,3.10
2022-08-16T07:41:17.458Z,4.13
2022-08-16T07:43:46.268Z,4.45
2022-08-16T07:46:38.752Z,4.03
2022-08-16T07:49:03.720Z,6.95
2022-08-16T07:51:35.581Z,4.38
2022-08-16T07:54:09.630Z,2.45
2022-08-16T07:56:38.093Z,4.75
2022-08-16T07:59:05.775Z,3.92
2022-08-16T08:01:33.571Z,3.05
2022-08-16T08:04:04.441Z,4.22
2022-08-16T08:10:29.657Z,2.88
2022-08-16T08:12:59.369Z,3.33
2022-08-16T08:19:20.981Z,4.15
2022-08-16T08:21:58.952Z,4.88
2022-08-16T08:24:32.343Z,5.30
2022-08-16T08:27:04.303Z,5.88
2022-08-16T08:29:37.450Z,5.40
2022-08-16T08:32:58.624Z,5.38
2022-08-16T08:34:52.563Z,4.70
2022-08-16T08:37:20.095Z,5.22
2022-08-16T08:39:55.299Z,3.45
2022-08-16T08:42:26.781Z,8.52
2022-08-16T08:44:54.716Z,7.88
2022-08-16T08:47:21.410Z,5.00
2022-08-16T08:49:55.188Z,3.55
2022-08-16T08:52:35.369Z,3.50
2022-08-16T08:55:09.237Z,3.58
2022-08-16T08:57:38.084Z,4.00
2022-08-16T09:00:07.896Z,4.50
2022-08-16T09:02:42.741Z,2.65
2022-08-16T09:05:15.442Z,4.93
2022-08-16T09:08:00.539Z,3.22
2022-08-16T09:10:30.598Z,5.05
2022-08-16T09:12:58.864Z,4.03
2022-08-16T09:19:16.523Z,6.03
2022-08-16T09:21:59.482Z,2.90
2022-08-16T09:24:51.474Z,4.65
2022-08-16T09:27:13.224Z,2.92
2022-08-16T09:29:45.349Z,2.92
2022-08-16T09:32:12.870Z,3.95
2022-08-16T09:34:58.281Z,3.95
2022-08-16T09:37:29.577Z,2.05
2022-08-16T09:40:01.051Z,3.75
2022-08-16T09:42:29.391Z,3.53
2022-08-16T09:45:11.823Z,2.25
2022-08-16T09:47:57.038Z,5.38
2022-08-16T09:50:36.830Z,4.55
2022-08-16T09:53:15.408Z,2.85
2022-08-16T09:55:49.442Z,6.35
2022-08-16T09:58:40.673Z,2.33
2022-08-16T10:01:08.738Z,8.65
2022-08-16T10:03:38.399Z,2.05
2022-08-16T10:06:26.250Z,2.28
2022-08-16T10:09:05.999Z,2.72
2022-08-16T10:11:54.014Z,4.05
2022-08-16T10:14:24.987Z,3.53
2022-08-16T10:17:02.704Z,4.25
2022-08-16T10:19:29.517Z,8.40
2022-08-16T10:21:58.989Z,4.65
2022-08-16T10:24:28.316Z,3.42
2022-08-16T10:27:16.668Z,6.65
2022-08-16T10:30:00.360Z,2.30
2022-08-16T10:32:30.546Z,2.17
2022-08-16T10:34:58.554Z,2.22
2022-08-16T10:37:32.751Z,4.63
2022-08-16T10:40:29.632Z,4.78
2022-08-16T10:42:56.253Z,5.07
2022-08-16T10:45:23.124Z,3.70
2022-08-16T10:48:00.552Z,3.13
2022-08-16T10:50:32.499Z,2.83
2022-08-16T10:53:00.102Z,2.88
2022-08-16T10:55:40.913Z,2.00
2022-08-16T10:58:13.708Z,10.30
2022-08-16T11:00:45.989Z,3.25
2022-08-16T11:06:03.222Z,3.58
2022-08-16T11:08:36.428Z,5.75
2022-08-16T11:11:13.005Z,3.17
2022-08-16T11:14:10.681Z,3.22
2022-08-16T11:19:22.798Z,3.92
2022-08-16T11:24:42.251Z,5.45
2022-08-16T11:27:23.463Z,5.28
2022-08-16T11:29:53.371Z,3.05
2022-08-16T11:32:31.366Z,1.75
2022-08-16T11:35:13.556Z,3.35
2022-08-16T11:40:56.799Z,2.90
2022-08-16T11:43:28.935Z,17.92
2022-08-16T11:45:57.831Z,1.80
2022-08-16T11:48:33.373Z,2.17
2022-08-16T11:51:01.683Z,1.70
2022-08-16T11:53:29.680Z,2.67
2022-08-16T11:56:03.436Z,5.95
2022-08-16T11:58:34.010Z,3.80
2022-08-16T12:01:00.855Z,2.22
2022-08-16T12:03:35.429Z,4.55
2022-08-16T12:06:10.994Z,3.13
2022-08-16T12:08:57.443Z,2.35
2022-08-16T12:11:28.153Z,3.08
2022-08-16T12:13:59.303Z,3.35
2022-08-16T12:16:31.181Z,7.13
2022-08-16T12:19:00.982Z,6.50
2022-08-16T12:21:57.543Z,6.40
2022-08-16T12:24:14.838Z,3.05
2022-08-16T12:26:42.656Z,2.15
2022-08-16T12:29:10.566Z,3.30
2022-08-16T12:31:37.298Z,2.28
2022-08-16T12:34:28.841Z,5.32
2022-08-16T12:39:23.098Z,1.85
2022-08-16T12:41:49.953Z,5.57
2022-08-16T12:44:19.877Z,5.10
2022-08-16T12:47:08.237Z,2.45
2022-08-16T12:49:41.910Z,3.67
2022-08-16T12:52:09.072Z,2.00
2022-08-16T12:54:37.446Z,3.03
2022-08-16T12:57:14.002Z,2.90
2022-08-16T12:59:42.059Z,2.92
2022-08-16T13:02:12.576Z,4.85
2022-08-16T13:04:49.902Z,6.60
2022-08-16T13:07:18.142Z,4.20
2022-08-16T13:09:58.336Z,8.02
2022-08-16T13:12:28.439Z,5.00
2022-08-16T13:14:55.934Z,4.38
2022-08-16T13:17:26.502Z,2.85
2022-08-16T13:20:12.593Z,7.20
2022-08-16T13:22:49.957Z,5.50
2022-08-16T13:25:21.437Z,6.32
2022-08-16T13:28:03.100Z,2.70
2022-08-16T13:30:41.767Z,3.38
2022-08-16T13:33:16.923Z,8.25
2022-08-16T13:35:55.898Z,3.08
2022-08-16T13:38:26.058Z,3.20
2022-08-16T13:40:57.322Z,2.35
2022-08-16T13:43:26.399Z,15.43
2022-08-16T13:45:54.082Z,7.43
2022-08-16T13:48:25.346Z,3.35
2022-08-16T13:51:02.469Z,3.97
2022-08-16T13:53:31.024Z,3.63
2022-08-16T13:55:59.573Z,4.47
2022-08-16T13:58:36.716Z,6.57
2022-08-16T14:01:09.804Z,9.15
2022-08-16T14:03:40.998Z,2.88
2022-08-16T14:06:10.566Z,7.55
2022-08-16T14:08:42.005Z,4.53
2022-08-16T14:11:11.740Z,5.10
2022-08-16T14:13:39.662Z,3.03
2022-08-16T14:16:12.643Z,3.67
2022-08-16T14:18:52.662Z,4.07
2022-08-16T14:21:23.576Z,4.05
2022-08-16T14:23:52.290Z,4.00
2022-08-16T14:26:21.218Z,3.42
2022-08-16T14:28:50.400Z,5.65
2022-08-16T14:31:18.401Z,6.68
2022-08-16T14:33:45.534Z,2.45
2022-08-16T14:36:12.316Z,3.42
2022-08-16T14:38:45.560Z,10.27
2022-08-16T14:41:13.711Z,2.63
2022-08-16T14:43:40.623Z,3.75
2022-08-16T14:46:07.751Z,2.60
2022-08-16T14:48:34.816Z,4.80
2022-08-16T14:51:01.893Z,5.00
2022-08-16T14:53:28.808Z,3.22
2022-08-16T14:55:58.518Z,6.55
2022-08-16T14:58:34.995Z,4.88
2022-08-16T15:01:06.121Z,16.25
2022-08-16T15:03:37.382Z,9.65
2022-08-16T15:06:04.934Z,8.07
2022-08-16T15:08:34.157Z,4.90
2022-08-16T15:11:05.309Z,2.75
2022-08-16T15:13:32.529Z,5.35
2022-08-16T15:16:02.753Z,15.93
2022-08-16T15:18:31.561Z,9.20
2022-08-16T15:20:59.752Z,11.75
2022-08-16T15:23:28.400Z,3.55
2022-08-16T15:26:03.651Z,2.85
2022-08-16T15:28:32.780Z,6.35
2022-08-16T15:31:06.077Z,4.25
2022-08-16T15:33:43.335Z,5.50
2022-08-16T15:36:18.325Z,7.95
2022-08-16T15:38:56.189Z,6.30
2022-08-16T15:42:01.928Z,6.13
2022-08-16T15:44:38.910Z,6.25
2022-08-16T15:47:18.850Z,3.22
2022-08-16T15:49:53.091Z,9.32
2022-08-16T15:52:35.576Z,3.95
2022-08-16T15:55:23.654Z,8.40
2022-08-16T16:00:21.774Z,13.43
2022-08-16T16:02:49.587Z,43.40
2022-08-16T16:05:17.127Z,31.40
2022-08-16T16:07:56.492Z,51.60
2022-08-16T16:10:31.415Z,8.40
2022-08-16T16:13:03.821Z,226.20
2022-08-16T16:15:34.766Z,242.35
2022-08-16T16:18:09.193Z,320.20
2022-08-16T16:20:37.354Z,923.85
2022-08-16T16:23:10.305Z,451.35
2022-08-16T16:25:38.774Z,37.85
2022-08-16T16:28:12.677Z,1356.78
2022-08-16T16:30:44.857Z,1286.35
2022-08-16T16:33:21.118Z,286.52
2022-08-16T16:35:55.579Z,828.13
2022-08-16T16:38:28.746Z,293.98
2022-08-16T16:40:56.002Z,297.05
2022-08-16T16:43:25.502Z,587.58
2022-08-16T16:45:58.271Z,735.03
2022-08-16T16:48:34.448Z,1116.80
2022-08-16T16:51:09.022Z,794.78
2022-08-16T16:53:56.196Z,408.13
2022-08-16T16:56:31.089Z,902.08
2022-08-16T16:59:06.689Z,738.53
2022-08-16T17:01:59.344Z,504.85
2022-08-16T17:04:31.993Z,400.40
2022-08-16T17:07:03.712Z,298.92
2022-08-16T17:09:34.478Z,41.67
2022-08-16T17:12:07.731Z,339.75
2022-08-16T17:14:35.734Z,365.00
2022-08-16T17:17:08.623Z,112.75
2022-08-16T17:19:41.163Z,62.80
2022-08-16T17:22:15.218Z,62.53
2022-08-16T17:24:44.942Z,51.22
2022-08-16T17:27:18.081Z,17.30
2022-08-16T17:29:51.434Z,31.20
2022-08-16T17:32:33.844Z,68.32
2022-08-16T17:35:18.387Z,68.47
2022-08-16T17:37:51.686Z,48.67
2022-08-16T17:40:46.760Z,63.70
2022-08-16T17:43:16.330Z,34.92
2022-08-16T17:45:43.399Z,6.38
2022-08-16T17:48:10.836Z,11.55
2022-08-16T17:50:37.893Z,9.85
2022-08-16T17:53:05.211Z,4.07
2022-08-16T17:55:35.814Z,10.50
2022-08-16T17:58:09.748Z,6.53
2022-08-16T18:00:49.179Z,14.23
2022-08-16T18:04:07.373Z,10.75
2022-08-16T18:06:12.648Z,9.15
2022-08-16T18:08:39.924Z,9.35
2022-08-16T18:11:07.988Z,10.15
2022-08-16T18:13:34.746Z,6.30
2022-08-16T18:16:01.708Z,8.48
2022-08-16T18:18:28.414Z,4.80
2022-08-16T18:21:13.995Z,9.55
2022-08-16T18:23:40.733Z,14.18
2022-08-16T18:26:08.007Z,3.45
2022-08-16T18:28:37.774Z,7.60
2022-08-16T18:31:08.637Z,9.07
2022-08-16T18:33:43.312Z,14.20
2022-08-16T18:36:20.618Z,8.93
2022-08-16T18:38:48.930Z,10.23
2022-08-16T18:41:16.458Z,9.10
2022-08-16T18:44:22.256Z,7.65
2022-08-16T18:46:30.017Z,5.35
2022-08-16T18:48:57.027Z,3.25
2022-08-16T18:51:25.401Z,9.85
2022-08-16T18:53:52.507Z,10.45
2022-08-16T18:56:19.674Z,5.03
2022-08-16T18:58:46.608Z,5.90
2022-08-16T19:01:13.605Z,4.55
2022-08-16T19:03:40.516Z,3.03
2022-08-16T19:06:14.232Z,7.38
2022-08-16T19:08:44.125Z,6.68
2022-08-16T19:11:14.035Z,8.18
2022-08-16T19:13:44.284Z,12.43
2022-08-16T19:16:13.360Z,10.02
2022-08-16T19:18:40.642Z,6.07
2022-08-16T19:21:08.858Z,8.73
2022-08-16T19:23:37.227Z,6.13
2022-08-16T19:26:11.092Z,8.65
2022-08-16T19:28:59.069Z,4.32
2022-08-16T19:31:34.040Z,7.15
2022-08-16T19:34:02.115Z,8.70
2022-08-16T19:36:36.171Z,4.32
2022-08-16T19:39:10.476Z,5.40
2022-08-16T19:41:39.812Z,5.15
2022-08-16T19:44:07.081Z,8.55
2022-08-16T19:46:34.499Z,5.22
2022-08-16T19:49:01.228Z,4.53
2022-08-16T19:51:28.584Z,12.48
2022-08-16T19:53:55.457Z,8.85
2022-08-16T19:56:25.666Z,13.02
2022-08-16T19:59:17.481Z,4.45
2022-08-16T20:01:42.187Z,4.80
2022-08-16T20:04:12.076Z,5.90
2022-08-16T20:06:39.429Z,5.00
2022-08-16T20:09:06.704Z,6.97
2022-08-16T20:11:34.783Z,8.48
2022-08-16T20:14:02.033Z,9.70
2022-08-16T20:16:31.287Z,6.47
2022-08-16T20:19:01.258Z,8.10
2022-08-16T20:21:28.452Z,6.20
2022-08-16T20:24:09.912Z,9.18
2022-08-16T20:26:41.955Z,4.30
2022-08-16T20:29:08.885Z,6.00
2022-08-16T20:31:35.754Z,11.25
2022-08-16T20:34:02.450Z,7.25
2022-08-16T20:36:29.911Z,4.95
2022-08-16T20:38:57.748Z,10.27
2022-08-16T20:41:24.495Z,5.00
2022-08-16T20:43:51.274Z,11.70
2022-08-16T20:46:22.212Z,7.80
2022-08-16T20:48:49.133Z,6.93
2022-08-16T20:51:16.593Z,5.05
2022-08-16T20:53:44.020Z,8.52
2022-08-16T20:56:12.088Z,10.35
2022-08-16T20:58:39.641Z,5.82
2022-08-16T21:01:07.216Z,5.85
2022-08-16T21:03:34.409Z,6.07
2022-08-16T21:06:02.278Z,10.23
2022-08-16T21:08:52.068Z,7.85
2022-08-16T21:11:16.647Z,5.10
2022-08-16T21:13:43.356Z,3.72
2022-08-16T21:16:10.854Z,7.20
2022-08-16T21:18:37.584Z,8.02
2022-08-16T21:21:04.328Z,5.28
2022-08-16T21:23:31.069Z,4.78
2022-08-16T21:25:59.698Z,4.57
2022-08-16T21:28:40.878Z,6.43
2022-08-16T21:31:15.213Z,5.40
2022-08-16T21:33:43.192Z,5.10
2022-08-16T21:36:11.211Z,9.23
2022-08-16T21:38:39.026Z,7.50
2022-08-16T21:41:12.824Z,6.65
2022-08-16T21:43:40.289Z,6.30
2022-08-16T21:46:08.337Z,8.63
2022-08-16T21:48:36.916Z,5.78
2022-08-16T21:51:11.089Z,5.93
2022-08-16T21:53:37.981Z,6.13
2022-08-16T21:56:05.813Z,6.03
2022-08-16T21:58:33.134Z,4.28
2022-08-16T22:01:01.129Z,5.93
2022-08-16T22:03:28.427Z,5.20
2022-08-16T22:06:11.643Z,5.43
2022-08-16T22:08:48.691Z,4.95
2022-08-16T22:11:22.780Z,7.30
2022-08-16T22:13:57.481Z,6.15
2022-08-16T22:16:27.238Z,8.23
2022-08-16T22:18:53.899Z,6.75
2022-08-16T22:21:20.555Z,6.70
2022-08-16T22:23:56.548Z,4.57
2022-08-16T22:26:32.004Z,3.80
2022-08-16T22:29:05.564Z,5.43
2022-08-16T22:31:32.984Z,6.07
2022-08-16T22:34:01.840Z,6.38
2022-08-16T22:36:30.108Z,8.15
2022-08-16T22:39:02.978Z,9.13
2022-08-16T22:41:34.610Z,7.20
2022-08-16T22:44:03.373Z,7.55
2022-08-16T22:46:30.431Z,8.95
2022-08-16T22:48:57.714Z,6.10
2022-08-16T22:51:27.016Z,11.95
2022-08-16T22:53:54.695Z,13.45
2022-08-16T22:56:22.486Z,5.28
2022-08-16T22:58:49.385Z,8.35
2022-08-16T23:01:17.853Z,6.47
2022-08-16T23:03:44.874Z,4.20
2022-08-16T23:06:12.517Z,6.55
2022-08-16T23:08:41.495Z,4.55
2022-08-16T23:11:11.396Z,4.50
2022-08-16T23:13:50.718Z,8.85
2022-08-16T23:18:49.455Z,8.07
2022-08-16T23:21:18.025Z,4.32
2022-08-16T23:23:46.667Z,5.82
2022-08-16T23:26:46.783Z,6.15
2022-08-16T23:29:04.367Z,6.35
2022-08-16T23:31:32.675Z,11.20
2022-08-16T23:33:59.926Z,5.72
2022-08-16T23:36:26.639Z,7.35
2022-08-16T23:38:53.358Z,5.22
2022-08-16T23:41:20.334Z,8.18
2022-08-16T23:43:47.266Z,4.97
2022-08-16T23:46:17.277Z,7.97
2022-08-16T23:49:56.077Z,5.45
2022-08-16T23:51:32.356Z,9.88
2022-08-16T23:54:00.008Z,5.30
2022-08-16T23:56:26.711Z,8.25
2022-08-16T23:59:02.213Z,7.72
